FBT98CS LFMN-LEPA
Flight info
| Callsign | FBT98CS |
|---|---|
| Flight time | 1h 8m |
| Altitude | 40000 |
| Route | EPOLO DCT SOFFY/N0454F390 DCT VATIR N852 VERSO L129 LUNIK |
| Aircraft | B738/M-SDE2E3FGHIRWXY/LB1 |
Departure
| Time | 2026-04-30 20:25 |
|---|---|
| Airport | Nice-Côte d'Azur Airport (LFMN) |
Arrival
| Time | 2026-04-30 21:34 |
|---|---|
| Airport | Palma de Mallorca Airport (LEPA) |
| Time | Latitude | Longitude | Altitude | Speed | Heading |
|---|---|---|---|---|---|
| 2026-04-30 20:06 | 43.66360 | 7.20684 | 21 ft | 0 kts | 331° |
| 2026-04-30 20:16 | 43.66355 | 7.20688 | 21 ft | 2 kts | 330° |
| 2026-04-30 20:16 | 43.66341 | 7.20700 | 23 ft | 2 kts | 323° |
| 2026-04-30 20:16 | 43.66329 | 7.20715 | 22 ft | 2 kts | 316° |
| 2026-04-30 20:16 | 43.66317 | 7.20731 | 21 ft | 2 kts | 306° |
| 2026-04-30 20:17 | 43.66309 | 7.20751 | 23 ft | 2 kts | 292° |
| 2026-04-30 20:17 | 43.66304 | 7.20773 | 23 ft | 2 kts | 275° |
| 2026-04-30 20:17 | 43.66305 | 7.20796 | 24 ft | 2 kts | 260° |
| 2026-04-30 20:17 | 43.66309 | 7.20818 | 23 ft | 2 kts | 260° |
| 2026-04-30 20:18 | 43.66310 | 7.20836 | 22 ft | 1 kts | 262° |
| 2026-04-30 20:18 | 43.66311 | 7.20836 | 22 ft | 0 kts | 262° |
| 2026-04-30 20:19 | 43.66310 | 7.20828 | 22 ft | 3 kts | 262° |
| 2026-04-30 20:20 | 43.66294 | 7.20778 | 23 ft | 8 kts | 226° |
| 2026-04-30 20:20 | 43.66224 | 7.20770 | 21 ft | 12 kts | 168° |
| 2026-04-30 20:20 | 43.66130 | 7.20794 | 21 ft | 15 kts | 171° |
| 2026-04-30 20:20 | 43.66053 | 7.20809 | 21 ft | 18 kts | 171° |
| 2026-04-30 20:21 | 43.65930 | 7.20837 | 21 ft | 18 kts | 171° |
| 2026-04-30 20:21 | 43.65807 | 7.20865 | 21 ft | 18 kts | 171° |
| 2026-04-30 20:21 | 43.65687 | 7.20893 | 21 ft | 17 kts | 171° |
| 2026-04-30 20:21 | 43.65572 | 7.20918 | 22 ft | 16 kts | 170° |
| 2026-04-30 20:22 | 43.65463 | 7.20941 | 21 ft | 16 kts | 172° |
| 2026-04-30 20:22 | 43.65356 | 7.20950 | 21 ft | 15 kts | 195° |
| 2026-04-30 20:22 | 43.65298 | 7.20887 | 21 ft | 0 kts | 224° |
| 2026-04-30 20:22 | 43.65285 | 7.20873 | 22 ft | 5 kts | 212° |
| 2026-04-30 20:23 | 43.65266 | 7.20872 | 21 ft | 0 kts | 162° |
| 2026-04-30 20:23 | 43.65263 | 7.20874 | 21 ft | 0 kts | 159° |
| 2026-04-30 20:23 | 43.65256 | 7.20879 | 21 ft | 6 kts | 153° |
| 2026-04-30 20:23 | 43.65202 | 7.20929 | 22 ft | 7 kts | 136° |
| 2026-04-30 20:24 | 43.65208 | 7.20983 | 25 ft | 0 kts | 48° |
| 2026-04-30 20:24 | 43.65342 | 7.21168 | 23 ft | 67 kts | 45° |
| 2026-04-30 20:25 | 43.66605 | 7.22908 | 502 ft | 154 kts | 44° |
| 2026-04-30 20:25 | 43.67201 | 7.24163 | 1161 ft | 165 kts | 80° |
| 2026-04-30 20:26 | 43.65965 | 7.26597 | 2407 ft | 193 kts | 139° |
| 2026-04-30 20:26 | 43.63773 | 7.29145 | 3607 ft | 210 kts | 135° |
| 2026-04-30 20:26 | 43.62677 | 7.30540 | 4341 ft | 218 kts | 134° |
| 2026-04-30 20:27 | 43.60339 | 7.33186 | 5922 ft | 232 kts | 159° |
| 2026-04-30 20:27 | 43.57285 | 7.32005 | 7581 ft | 240 kts | 216° |
| 2026-04-30 20:28 | 43.54506 | 7.29336 | 9335 ft | 245 kts | 215° |
| 2026-04-30 20:28 | 43.51599 | 7.26616 | 10724 ft | 267 kts | 215° |
| 2026-04-30 20:29 | 43.48214 | 7.23505 | 11492 ft | 316 kts | 214° |
| 2026-04-30 20:30 | 43.42118 | 7.17982 | 12677 ft | 376 kts | 214° |
| 2026-04-30 20:30 | 43.35515 | 7.12014 | 15429 ft | 379 kts | 214° |
| 2026-04-30 20:31 | 43.28698 | 7.05831 | 17495 ft | 403 kts | 215° |
| 2026-04-30 20:32 | 43.21617 | 6.99421 | 19714 ft | 413 kts | 216° |
| 2026-04-30 20:32 | 43.16827 | 6.94915 | 21041 ft | 419 kts | 224° |
| 2026-04-30 20:33 | 43.14797 | 6.92099 | 21724 ft | 420 kts | 230° |
| 2026-04-30 20:33 | 43.10867 | 6.86079 | 23021 ft | 426 kts | 231° |
| 2026-04-30 20:33 | 43.08876 | 6.83046 | 23615 ft | 430 kts | 230° |
| 2026-04-30 20:34 | 43.04766 | 6.77063 | 24638 ft | 436 kts | 229° |
| 2026-04-30 20:34 | 43.00543 | 6.71003 | 25598 ft | 442 kts | 229° |
| 2026-04-30 20:35 | 42.98414 | 6.67964 | 26117 ft | 443 kts | 228° |
| 2026-04-30 20:35 | 42.96290 | 6.64952 | 26695 ft | 443 kts | 228° |
| 2026-04-30 20:35 | 42.92009 | 6.58841 | 27587 ft | 448 kts | 229° |
| 2026-04-30 20:36 | 42.90127 | 6.55450 | 27873 ft | 448 kts | 245° |
| 2026-04-30 20:36 | 42.89093 | 6.51481 | 28322 ft | 446 kts | 260° |
| 2026-04-30 20:36 | 42.89188 | 6.43119 | 29033 ft | 447 kts | 279° |
| 2026-04-30 20:37 | 42.89681 | 6.38919 | 29459 ft | 448 kts | 281° |
| 2026-04-30 20:37 | 42.90199 | 6.34739 | 30030 ft | 446 kts | 281° |
| 2026-04-30 20:37 | 42.90691 | 6.30560 | 30509 ft | 445 kts | 280° |
| 2026-04-30 20:37 | 42.91156 | 6.26389 | 30962 ft | 443 kts | 279° |
| 2026-04-30 20:38 | 42.91603 | 6.22229 | 31469 ft | 440 kts | 279° |
| 2026-04-30 20:38 | 42.92030 | 6.18164 | 32011 ft | 436 kts | 279° |
| 2026-04-30 20:38 | 42.92453 | 6.14092 | 32556 ft | 432 kts | 279° |
| 2026-04-30 20:39 | 42.93287 | 6.06015 | 33556 ft | 427 kts | 279° |
| 2026-04-30 20:39 | 42.93700 | 6.02011 | 34064 ft | 424 kts | 279° |
| 2026-04-30 20:39 | 42.94109 | 5.98032 | 34497 ft | 421 kts | 279° |
| 2026-04-30 20:40 | 42.94917 | 5.90144 | 35164 ft | 420 kts | 279° |
| 2026-04-30 20:40 | 42.95322 | 5.86170 | 35503 ft | 420 kts | 278° |
| 2026-04-30 20:40 | 42.95718 | 5.82272 | 35866 ft | 418 kts | 278° |
| 2026-04-30 20:41 | 42.96510 | 5.74431 | 36579 ft | 415 kts | 278° |
| 2026-04-30 20:41 | 42.96903 | 5.70522 | 36923 ft | 414 kts | 278° |
| 2026-04-30 20:41 | 42.97293 | 5.66628 | 37233 ft | 414 kts | 278° |
| 2026-04-30 20:41 | 42.97677 | 5.62774 | 37553 ft | 413 kts | 278° |
| 2026-04-30 20:42 | 42.98064 | 5.58884 | 37900 ft | 411 kts | 278° |
| 2026-04-30 20:42 | 42.98447 | 5.55022 | 38235 ft | 410 kts | 278° |
| 2026-04-30 20:42 | 42.99208 | 5.47294 | 38856 ft | 408 kts | 278° |
| 2026-04-30 20:43 | 42.99586 | 5.43447 | 39070 ft | 409 kts | 278° |
| 2026-04-30 20:43 | 42.99963 | 5.39589 | 39223 ft | 410 kts | 278° |
| 2026-04-30 20:43 | 43.00336 | 5.35757 | 39362 ft | 412 kts | 278° |
| 2026-04-30 20:44 | 43.01091 | 5.27972 | 39699 ft | 413 kts | 278° |
| 2026-04-30 20:44 | 43.01408 | 5.24053 | 39864 ft | 414 kts | 271° |
| 2026-04-30 20:44 | 42.99984 | 5.16480 | 40174 ft | 423 kts | 245° |
| 2026-04-30 20:45 | 42.96166 | 5.10216 | 40189 ft | 435 kts | 228° |
| 2026-04-30 20:45 | 42.91726 | 5.04678 | 40175 ft | 433 kts | 226° |
| 2026-04-30 20:46 | 42.82859 | 4.93628 | 40180 ft | 429 kts | 227° |
| 2026-04-30 20:47 | 42.76303 | 4.85327 | 40178 ft | 428 kts | 227° |
| 2026-04-30 20:48 | 42.69771 | 4.77068 | 40184 ft | 428 kts | 227° |
| 2026-04-30 20:48 | 42.65419 | 4.71583 | 40180 ft | 428 kts | 227° |
| 2026-04-30 20:49 | 42.61052 | 4.66090 | 40180 ft | 429 kts | 227° |
| 2026-04-30 20:50 | 42.54467 | 4.57829 | 40179 ft | 430 kts | 227° |
| 2026-04-30 20:50 | 42.50070 | 4.52326 | 40177 ft | 429 kts | 227° |
| 2026-04-30 20:51 | 42.45697 | 4.46865 | 40177 ft | 429 kts | 227° |
| 2026-04-30 20:51 | 42.39089 | 4.38632 | 40176 ft | 429 kts | 227° |
| 2026-04-30 20:52 | 42.34722 | 4.33204 | 40171 ft | 429 kts | 226° |
| 2026-04-30 20:53 | 42.28114 | 4.25011 | 40170 ft | 429 kts | 226° |
| 2026-04-30 20:53 | 42.23736 | 4.19595 | 40166 ft | 429 kts | 226° |
| 2026-04-30 20:54 | 42.17046 | 4.11554 | 40157 ft | 432 kts | 220° |
| 2026-04-30 20:55 | 42.09131 | 4.05541 | 40158 ft | 437 kts | 212° |
| 2026-04-30 20:55 | 42.03763 | 4.01678 | 40160 ft | 437 kts | 213° |
| 2026-04-30 20:56 | 41.95772 | 3.95833 | 40151 ft | 437 kts | 213° |
| 2026-04-30 20:56 | 41.90102 | 3.92730 | 40159 ft | 446 kts | 197° |
| 2026-04-30 20:57 | 41.87037 | 3.91966 | 40168 ft | 449 kts | 194° |
| 2026-04-30 20:57 | 41.80853 | 3.90640 | 40148 ft | 449 kts | 194° |
| 2026-04-30 20:58 | 41.71632 | 3.88579 | 40154 ft | 449 kts | 194° |
| 2026-04-30 20:58 | 41.65470 | 3.87157 | 40148 ft | 449 kts | 194° |
| 2026-04-30 20:59 | 41.56238 | 3.85038 | 40151 ft | 449 kts | 194° |
| 2026-04-30 21:00 | 41.43898 | 3.82210 | 40146 ft | 449 kts | 194° |
| 2026-04-30 21:01 | 41.34680 | 3.80104 | 40141 ft | 449 kts | 194° |
| 2026-04-30 21:02 | 41.25421 | 3.77995 | 40140 ft | 449 kts | 194° |
| 2026-04-30 21:02 | 41.19287 | 3.76600 | 40139 ft | 449 kts | 194° |
| 2026-04-30 21:03 | 41.13208 | 3.74764 | 40132 ft | 443 kts | 204° |
| 2026-04-30 21:03 | 41.07476 | 3.71787 | 40133 ft | 442 kts | 206° |
| 2026-04-30 21:04 | 41.01792 | 3.68772 | 40137 ft | 442 kts | 205° |
| 2026-04-30 21:04 | 40.93219 | 3.64325 | 40139 ft | 442 kts | 205° |
| 2026-04-30 21:05 | 40.87470 | 3.61378 | 40130 ft | 441 kts | 205° |
| 2026-04-30 21:05 | 40.81773 | 3.58465 | 40130 ft | 441 kts | 205° |
| 2026-04-30 21:06 | 40.76050 | 3.55542 | 40131 ft | 440 kts | 205° |
| 2026-04-30 21:06 | 40.71290 | 3.53115 | 40127 ft | 440 kts | 205° |
| 2026-04-30 21:07 | 40.64615 | 3.49715 | 39626 ft | 445 kts | 204° |
| 2026-04-30 21:07 | 40.62708 | 3.48746 | 39307 ft | 440 kts | 204° |
| 2026-04-30 21:07 | 40.58922 | 3.46824 | 38348 ft | 438 kts | 204° |
| 2026-04-30 21:08 | 40.56082 | 3.45383 | 37622 ft | 437 kts | 205° |
| 2026-04-30 21:08 | 40.54172 | 3.44414 | 37165 ft | 435 kts | 205° |
| 2026-04-30 21:08 | 40.51348 | 3.42983 | 36468 ft | 434 kts | 205° |
| 2026-04-30 21:08 | 40.48535 | 3.41559 | 35732 ft | 433 kts | 205° |
| 2026-04-30 21:09 | 40.45754 | 3.40159 | 34966 ft | 433 kts | 203° |
| 2026-04-30 21:09 | 40.42797 | 3.39273 | 34256 ft | 441 kts | 188° |
| 2026-04-30 21:09 | 40.39712 | 3.39285 | 33529 ft | 443 kts | 182° |
| 2026-04-30 21:09 | 40.36621 | 3.39494 | 32720 ft | 444 kts | 181° |
| 2026-04-30 21:10 | 40.33536 | 3.39742 | 31889 ft | 444 kts | 181° |
| 2026-04-30 21:10 | 40.30449 | 3.39976 | 31045 ft | 445 kts | 181° |
| 2026-04-30 21:10 | 40.27393 | 3.40183 | 30186 ft | 446 kts | 181° |
| 2026-04-30 21:10 | 40.24269 | 3.40373 | 29260 ft | 444 kts | 181° |
| 2026-04-30 21:11 | 40.21255 | 3.40549 | 29055 ft | 419 kts | 181° |
| 2026-04-30 21:11 | 40.18440 | 3.40712 | 28895 ft | 395 kts | 182° |
| 2026-04-30 21:11 | 40.15762 | 3.40864 | 28754 ft | 373 kts | 182° |
| 2026-04-30 21:11 | 40.13241 | 3.41006 | 28468 ft | 358 kts | 182° |
| 2026-04-30 21:12 | 40.10770 | 3.41142 | 28078 ft | 347 kts | 182° |
| 2026-04-30 21:12 | 40.08413 | 3.41275 | 27729 ft | 337 kts | 182° |
| 2026-04-30 21:12 | 40.06096 | 3.41406 | 27369 ft | 329 kts | 182° |
| 2026-04-30 21:12 | 40.03818 | 3.41534 | 26906 ft | 326 kts | 182° |
| 2026-04-30 21:13 | 40.01551 | 3.41659 | 26407 ft | 325 kts | 182° |
| 2026-04-30 21:13 | 39.99310 | 3.41783 | 25928 ft | 324 kts | 182° |
| 2026-04-30 21:13 | 39.97060 | 3.41909 | 25448 ft | 321 kts | 182° |
| 2026-04-30 21:13 | 39.94830 | 3.42034 | 24934 ft | 320 kts | 182° |
| 2026-04-30 21:14 | 39.92610 | 3.42158 | 24432 ft | 318 kts | 182° |
| 2026-04-30 21:14 | 39.90404 | 3.42282 | 24013 ft | 314 kts | 181° |
| 2026-04-30 21:14 | 39.88231 | 3.42404 | 23565 ft | 311 kts | 181° |
| 2026-04-30 21:14 | 39.86077 | 3.42525 | 23030 ft | 309 kts | 181° |
| 2026-04-30 21:15 | 39.83935 | 3.42645 | 22520 ft | 306 kts | 181° |
| 2026-04-30 21:15 | 39.81811 | 3.42764 | 22007 ft | 304 kts | 181° |
| 2026-04-30 21:15 | 39.79706 | 3.42882 | 21530 ft | 301 kts | 181° |
| 2026-04-30 21:15 | 39.77645 | 3.42997 | 21056 ft | 299 kts | 181° |
| 2026-04-30 21:16 | 39.75565 | 3.43113 | 20578 ft | 297 kts | 181° |
| 2026-04-30 21:16 | 39.73506 | 3.43228 | 20104 ft | 295 kts | 181° |
| 2026-04-30 21:16 | 39.71481 | 3.43112 | 19620 ft | 288 kts | 198° |
| 2026-04-30 21:16 | 39.69719 | 3.41972 | 19150 ft | 279 kts | 222° |
| 2026-04-30 21:17 | 39.68468 | 3.40138 | 18712 ft | 273 kts | 240° |
| 2026-04-30 21:17 | 39.67583 | 3.37968 | 18248 ft | 271 kts | 245° |
| 2026-04-30 21:17 | 39.66759 | 3.35762 | 17761 ft | 269 kts | 245° |
| 2026-04-30 21:17 | 39.65958 | 3.33608 | 17381 ft | 260 kts | 245° |
| 2026-04-30 21:18 | 39.65172 | 3.31527 | 16866 ft | 254 kts | 245° |
| 2026-04-30 21:18 | 39.64399 | 3.29502 | 16297 ft | 252 kts | 245° |
| 2026-04-30 21:18 | 39.63619 | 3.27476 | 15726 ft | 249 kts | 245° |
| 2026-04-30 21:18 | 39.62846 | 3.25473 | 15176 ft | 247 kts | 245° |
| 2026-04-30 21:19 | 39.62080 | 3.23488 | 14639 ft | 244 kts | 244° |
| 2026-04-30 21:19 | 39.61319 | 3.21521 | 14103 ft | 242 kts | 244° |
| 2026-04-30 21:19 | 39.60575 | 3.19599 | 13555 ft | 240 kts | 244° |
| 2026-04-30 21:19 | 39.59826 | 3.17666 | 12959 ft | 239 kts | 244° |
| 2026-04-30 21:20 | 39.59080 | 3.15741 | 12368 ft | 238 kts | 244° |
| 2026-04-30 21:20 | 39.58338 | 3.13826 | 11800 ft | 236 kts | 244° |
| 2026-04-30 21:20 | 39.57600 | 3.11923 | 11246 ft | 236 kts | 244° |
| 2026-04-30 21:20 | 39.56870 | 3.10042 | 10744 ft | 235 kts | 244° |
| 2026-04-30 21:21 | 39.56137 | 3.08155 | 10390 ft | 232 kts | 244° |
| 2026-04-30 21:21 | 39.55405 | 3.06270 | 10106 ft | 232 kts | 244° |
| 2026-04-30 21:21 | 39.53976 | 3.02597 | 9547 ft | 220 kts | 244° |
| 2026-04-30 21:22 | 39.53305 | 3.00872 | 9309 ft | 208 kts | 244° |
| 2026-04-30 21:22 | 39.51411 | 2.96012 | 8674 ft | 201 kts | 244° |
| 2026-04-30 21:23 | 39.50787 | 2.94411 | 8456 ft | 202 kts | 244° |
| 2026-04-30 21:23 | 39.50152 | 2.92783 | 8246 ft | 203 kts | 244° |
| 2026-04-30 21:23 | 39.48877 | 2.89517 | 7798 ft | 201 kts | 244° |
| 2026-04-30 21:24 | 39.48244 | 2.87913 | 7578 ft | 197 kts | 244° |
| 2026-04-30 21:24 | 39.47616 | 2.86345 | 7361 ft | 195 kts | 244° |
| 2026-04-30 21:24 | 39.46995 | 2.84802 | 7159 ft | 195 kts | 244° |
| 2026-04-30 21:24 | 39.46368 | 2.83254 | 6934 ft | 193 kts | 244° |
| 2026-04-30 21:25 | 39.45089 | 2.80112 | 6520 ft | 202 kts | 244° |
| 2026-04-30 21:25 | 39.44430 | 2.78498 | 6276 ft | 203 kts | 244° |
| 2026-04-30 21:25 | 39.43771 | 2.76884 | 6047 ft | 202 kts | 244° |
| 2026-04-30 21:26 | 39.42458 | 2.73669 | 5638 ft | 200 kts | 244° |
| 2026-04-30 21:26 | 39.41807 | 2.72080 | 5441 ft | 199 kts | 244° |
| 2026-04-30 21:27 | 39.41202 | 2.68701 | 5094 ft | 194 kts | 262° |
| 2026-04-30 21:27 | 39.40964 | 2.66996 | 4911 ft | 196 kts | 262° |
| 2026-04-30 21:27 | 39.40720 | 2.65240 | 4714 ft | 199 kts | 262° |
| 2026-04-30 21:28 | 39.40232 | 2.61724 | 4318 ft | 197 kts | 262° |
| 2026-04-30 21:28 | 39.39992 | 2.59990 | 4171 ft | 194 kts | 262° |
| 2026-04-30 21:28 | 39.40980 | 2.57108 | 3755 ft | 186 kts | 335° |
| 2026-04-30 21:29 | 39.42156 | 2.56479 | 3605 ft | 180 kts | 341° |
| 2026-04-30 21:29 | 39.45771 | 2.56328 | 3006 ft | 192 kts | 17° |
| 2026-04-30 21:30 | 39.48104 | 2.57765 | 2408 ft | 178 kts | 51° |
| 2026-04-30 21:31 | 39.50133 | 2.61344 | 1756 ft | 149 kts | 59° |
| 2026-04-30 21:31 | 39.51203 | 2.63630 | 1337 ft | 155 kts | 60° |
| 2026-04-30 21:32 | 39.52398 | 2.66169 | 835 ft | 164 kts | 60° |
| 2026-04-30 21:32 | 39.52955 | 2.67339 | 683 ft | 144 kts | 61° |
| 2026-04-30 21:32 | 39.53453 | 2.68396 | 507 ft | 129 kts | 57° |
| 2026-04-30 21:32 | 39.53913 | 2.69398 | 380 ft | 131 kts | 61° |
| 2026-04-30 21:33 | 39.54394 | 2.70405 | 197 ft | 133 kts | 59° |
| 2026-04-30 21:33 | 39.55295 | 2.72302 | 20 ft | 96 kts | 58° |
| 2026-04-30 21:33 | 39.55567 | 2.72873 | 19 ft | 53 kts | 58° |
| 2026-04-30 21:34 | 39.55677 | 2.73115 | 19 ft | 13 kts | 62° |
| 2026-04-30 21:34 | 39.55715 | 2.73398 | 17 ft | 12 kts | 103° |
| 2026-04-30 21:34 | 39.55706 | 2.73423 | 17 ft | 0 kts | 123° |
| 2026-04-30 21:36 | 39.55693 | 2.73440 | 19 ft | 1 kts | 137° |
| 2026-04-30 21:36 | 39.55683 | 2.73450 | 18 ft | 3 kts | 145° |
| 2026-04-30 21:37 | 39.55514 | 2.73567 | 19 ft | 13 kts | 186° |
| 2026-04-30 21:37 | 39.55454 | 2.73481 | 22 ft | 13 kts | 238° |
| 2026-04-30 21:37 | 39.55376 | 2.73481 | 20 ft | 13 kts | 151° |
| 2026-04-30 21:37 | 39.55302 | 2.73537 | 21 ft | 12 kts | 148° |
| 2026-04-30 21:38 | 39.55233 | 2.73599 | 22 ft | 12 kts | 152° |
| 2026-04-30 21:38 | 39.55172 | 2.73586 | 24 ft | 10 kts | 240° |
| 2026-04-30 21:38 | 39.55139 | 2.73515 | 24 ft | 9 kts | 239° |
| 2026-04-30 21:38 | 39.55107 | 2.73445 | 24 ft | 9 kts | 238° |
| 2026-04-30 21:39 | 39.55075 | 2.73379 | 25 ft | 8 kts | 238° |
| 2026-04-30 21:39 | 39.55037 | 2.73330 | 26 ft | 8 kts | 194° |
| 2026-04-30 21:39 | 39.55011 | 2.73327 | 25 ft | 1 kts | 183° |
| 2026-04-30 21:39 | 39.55005 | 2.73325 | 25 ft | 1 kts | 187° |
| 2026-04-30 21:40 | 39.54999 | 2.73324 | 25 ft | 1 kts | 187° |
| 2026-04-30 21:40 | 39.54994 | 2.73324 | 25 ft | 1 kts | 187° |
| 2026-04-30 21:40 | 39.54989 | 2.73323 | 25 ft | 1 kts | 187° |
| 2026-04-30 21:40 | 39.54988 | 2.73323 | 25 ft | 0 kts | 187° |